createdAt,value
2019-04-24T00:00:29.528Z,80.94
2019-04-24T00:01:20.699Z,81.04
2019-04-24T00:02:44.780Z,81.04
2019-04-24T00:03:22.059Z,81.13
2019-04-24T00:04:32.814Z,81.04
2019-04-24T00:05:38.578Z,80.85
2019-04-24T00:08:27.119Z,81.23
2019-04-24T00:10:26.049Z,81.81
2019-04-24T00:11:32.374Z,81.71
2019-04-24T00:12:29.523Z,81.52
2019-04-24T00:13:41.945Z,82.00
2019-04-24T00:14:27.268Z,82.09
2019-04-24T00:15:32.329Z,82.09
2019-04-24T00:17:16.980Z,81.90
2019-04-24T00:21:21.916Z,81.81
2019-04-24T00:22:15.500Z,82.67
2019-04-24T00:23:27.922Z,82.67
2019-04-24T00:24:20.663Z,82.38
2019-04-24T00:25:29.999Z,82.29
2019-04-24T00:28:20.135Z,82.29
2019-04-24T00:30:19.527Z,82.29
2019-04-24T00:31:31.362Z,82.38
2019-04-24T00:32:16.660Z,82.67
2019-04-24T00:33:27.148Z,82.76
2019-04-24T00:37:24.695Z,83.15
2019-04-24T00:38:20.889Z,83.25
2019-04-24T00:39:20.933Z,83.15
2019-04-24T00:40:17.781Z,83.82
2019-04-24T00:44:14.552Z,83.53
2019-04-24T00:45:22.278Z,83.44
2019-04-24T00:46:32.630Z,83.63
2019-04-24T00:47:22.605Z,83.53
2019-04-24T00:48:23.221Z,84.01
2019-04-24T00:49:27.549Z,84.20
2019-04-24T00:50:35.410Z,84.20
2019-04-24T00:52:14.435Z,84.78
2019-04-24T00:53:42.793Z,84.88
2019-04-24T00:55:35.095Z,84.68
2019-04-24T00:56:33.764Z,84.58
2019-04-24T00:58:18.899Z,84.88
2019-04-24T01:00:26.857Z,84.49
2019-04-24T01:01:35.095Z,84.68
2019-04-24T01:03:30.248Z,84.58
2019-04-24T01:04:49.497Z,85.25
2019-04-24T01:06:23.480Z,85.16
2019-04-24T01:07:30.504Z,85.35
2019-04-24T01:08:19.861Z,84.68
2019-04-24T01:09:23.036Z,84.58
2019-04-24T01:10:23.347Z,85.06
2019-04-24T01:12:34.441Z,85.16
2019-04-24T01:13:21.491Z,85.06
2019-04-24T01:14:22.847Z,85.06
2019-04-24T01:16:21.590Z,84.97
2019-04-24T01:17:29.878Z,85.06
2019-04-24T01:18:17.726Z,85.06
2019-04-24T01:19:15.918Z,85.45
2019-04-24T01:21:20.557Z,85.25
2019-04-24T01:22:26.942Z,85.64
2019-04-24T01:27:23.559Z,85.83
2019-04-24T01:28:27.934Z,85.83
2019-04-24T01:29:17.015Z,85.93
2019-04-24T01:30:47.062Z,85.74
2019-04-24T01:32:32.498Z,85.54
2019-04-24T01:33:31.476Z,86.12
2019-04-24T01:34:24.886Z,86.79
2019-04-24T01:35:12.870Z,86.50
2019-04-24T01:36:29.732Z,86.41
2019-04-24T01:37:22.487Z,86.31
2019-04-24T01:38:36.061Z,86.60
2019-04-24T01:39:34.539Z,86.50
2019-04-24T01:40:15.598Z,86.60
2019-04-24T01:41:20.524Z,86.69
2019-04-24T01:43:34.237Z,88.03
2019-04-24T01:44:21.623Z,87.27
2019-04-24T01:45:36.891Z,87.94
2019-04-24T01:49:29.788Z,90.33
2019-04-24T01:50:23.864Z,90.29
2019-04-24T01:53:18.572Z,89.72
2019-04-24T01:55:16.407Z,90.72
2019-04-24T01:57:32.737Z,90.91
2019-04-24T01:58:38.262Z,91.10
2019-04-24T02:00:27.130Z,91.00
2019-04-24T02:02:32.330Z,91.34
2019-04-24T02:03:10.221Z,91.05
2019-04-24T02:04:26.880Z,91.29
2019-04-24T02:07:26.589Z,90.72
2019-04-24T02:09:23.944Z,91.15
2019-04-24T02:12:36.593Z,91.25
2019-04-24T02:16:21.214Z,91.15
2019-04-24T02:17:32.551Z,91.25
2019-04-24T02:18:29.507Z,91.05
2019-04-24T02:19:20.636Z,91.92
2019-04-24T02:20:37.026Z,91.44
2019-04-24T02:22:27.561Z,91.92
2019-04-24T02:23:31.311Z,91.72
2019-04-24T02:24:30.128Z,91.34
2019-04-24T02:26:31.786Z,91.34
2019-04-24T02:29:30.781Z,90.96
2019-04-24T02:30:43.845Z,91.34
2019-04-24T02:31:34.997Z,91.15
2019-04-24T02:34:18.393Z,91.15
2019-04-24T02:42:41.545Z,90.96
2019-04-24T02:44:45.443Z,90.48
2019-04-24T02:46:31.334Z,90.58
2019-04-24T02:47:34.118Z,91.15
2019-04-24T02:49:52.019Z,91.25
2019-04-24T02:50:24.734Z,90.67
2019-04-24T02:51:29.650Z,91.34
2019-04-24T02:52:39.674Z,91.53
2019-04-24T02:53:36.331Z,91.34
2019-04-24T02:56:38.516Z,90.48
2019-04-24T02:58:46.058Z,90.67
2019-04-24T03:00:36.446Z,90.96
2019-04-24T03:03:37.951Z,91.25
2019-04-24T03:04:35.485Z,90.96
2019-04-24T03:08:51.835Z,90.86
2019-04-24T03:09:29.421Z,90.67
2019-04-24T03:10:33.782Z,91.44
2019-04-24T03:13:31.576Z,90.91
2019-04-24T03:18:43.706Z,91.30
2019-04-24T03:20:46.031Z,91.49
2019-04-24T03:21:42.655Z,91.77
2019-04-24T03:22:34.231Z,91.68
2019-04-24T03:23:32.384Z,91.77
2019-04-24T03:27:43.036Z,91.97
2019-04-24T03:28:20.081Z,91.58
2019-04-24T03:34:04.390Z,92.16
2019-04-24T03:40:00.346Z,92.16
2019-04-24T03:41:17.815Z,92.16
2019-04-24T03:43:41.097Z,92.06
2019-04-24T03:46:32.856Z,92.16
2019-04-24T03:47:52.058Z,91.97
2019-04-24T03:48:42.763Z,92.06
2019-04-24T03:52:36.292Z,92.01
2019-04-24T03:54:25.441Z,91.58
2019-04-24T03:55:51.604Z,91.58
2019-04-24T03:56:30.814Z,91.97
2019-04-24T03:58:51.018Z,91.97
2019-04-24T04:00:43.697Z,91.92
2019-04-24T04:01:42.602Z,91.72
2019-04-24T04:02:43.252Z,91.68
2019-04-24T04:03:38.434Z,91.77
2019-04-24T04:07:33.378Z,91.72
2019-04-24T04:08:44.082Z,91.39
2019-04-24T04:10:28.396Z,92.01
2019-04-24T04:11:38.892Z,91.72
2019-04-24T04:12:52.041Z,91.92
2019-04-24T04:15:26.422Z,92.01
2019-04-24T04:16:38.946Z,92.16
2019-04-24T04:18:00.751Z,91.77
2019-04-24T04:20:43.692Z,92.06
2019-04-24T04:21:35.266Z,92.21
2019-04-24T04:26:42.771Z,91.72
2019-04-24T04:28:39.959Z,91.68
2019-04-24T04:29:41.184Z,91.82
2019-04-24T04:34:37.117Z,91.82
2019-04-24T04:35:13.653Z,92.11
2019-04-24T04:37:28.690Z,91.82
2019-04-24T04:39:40.651Z,92.01
2019-04-24T04:42:54.531Z,91.72
2019-04-24T04:44:37.257Z,91.05
2019-04-24T04:45:51.596Z,91.44
2019-04-24T04:46:44.770Z,91.25
2019-04-24T04:50:39.075Z,91.15
2019-04-24T04:51:40.038Z,90.96
2019-04-24T04:52:51.915Z,91.05
2019-04-24T04:55:22.005Z,91.34
2019-04-24T05:00:35.639Z,91.15
2019-04-24T05:02:55.885Z,91.15
2019-04-24T05:09:13.174Z,91.19
2019-04-24T05:11:47.940Z,91.34
2019-04-24T05:13:46.703Z,91.15
2019-04-24T05:15:24.639Z,90.62
2019-04-24T05:16:47.977Z,91.39
2019-04-24T05:17:48.345Z,91.00
2019-04-24T05:18:39.128Z,91.49
2019-04-24T05:19:30.289Z,91.49
2019-04-24T05:21:42.506Z,91.49
2019-04-24T05:23:43.762Z,90.81
2019-04-24T05:24:32.498Z,90.91
2019-04-24T05:29:37.622Z,91.00
2019-04-24T05:30:28.525Z,91.29
2019-04-24T05:31:36.046Z,91.29
2019-04-24T05:32:36.549Z,91.39
2019-04-24T05:34:40.256Z,90.72
2019-04-24T05:36:29.719Z,90.81
2019-04-24T05:37:39.192Z,90.81
2019-04-24T05:38:19.440Z,90.62
2019-04-24T05:41:33.131Z,90.53
2019-04-24T05:42:40.821Z,90.91
2019-04-24T05:43:37.561Z,90.43
2019-04-24T05:45:32.364Z,90.72
2019-04-24T05:47:40.313Z,91.10
2019-04-24T05:48:36.011Z,90.81
2019-04-24T05:49:35.913Z,90.33
2019-04-24T05:51:31.036Z,90.23
2019-04-24T05:52:36.038Z,90.23
2019-04-24T05:53:31.483Z,90.43
2019-04-24T05:55:46.078Z,90.43
2019-04-24T05:56:34.167Z,90.33
2019-04-24T05:57:49.263Z,90.14
2019-04-24T05:58:24.049Z,89.95
2019-04-24T05:59:46.639Z,90.14
2019-04-24T06:00:37.326Z,90.14
2019-04-24T06:02:40.354Z,90.05
2019-04-24T06:03:53.292Z,90.14
2019-04-24T06:05:33.552Z,89.86
2019-04-24T06:06:48.769Z,90.47
2019-04-24T06:08:27.556Z,89.71
2019-04-24T06:11:38.501Z,89.80
2019-04-24T06:14:34.250Z,89.42
2019-04-24T06:15:43.027Z,89.71
2019-04-24T06:17:30.009Z,89.13
2019-04-24T06:19:35.898Z,88.94
2019-04-24T06:21:35.866Z,89.51
2019-04-24T06:22:26.317Z,88.84
2019-04-24T06:25:47.437Z,89.04
2019-04-24T06:26:31.598Z,88.94
2019-04-24T06:27:33.294Z,89.61
2019-04-24T06:28:52.476Z,88.75
2019-04-24T06:30:39.398Z,88.79
2019-04-24T06:32:05.433Z,88.22
2019-04-24T06:32:31.298Z,88.12
2019-04-24T06:33:43.062Z,88.31
2019-04-24T06:34:30.838Z,88.41
2019-04-24T06:35:48.021Z,88.31
2019-04-24T06:36:57.073Z,88.41
2019-04-24T06:37:29.902Z,88.31
2019-04-24T06:39:00.449Z,88.12
2019-04-24T06:40:38.829Z,87.93
2019-04-24T06:42:33.864Z,87.93
2019-04-24T06:44:48.306Z,87.64
2019-04-24T06:45:28.759Z,87.59
2019-04-24T06:46:35.929Z,87.21
2019-04-24T06:47:54.566Z,86.68
2019-04-24T06:48:27.619Z,86.92
2019-04-24T06:49:10.486Z,87.21
2019-04-24T06:50:49.118Z,86.92
2019-04-24T06:51:24.214Z,86.72
2019-04-24T06:52:45.156Z,86.92
2019-04-24T06:53:19.437Z,86.82
2019-04-24T06:54:30.804Z,86.82
2019-04-24T06:56:37.768Z,86.54
2019-04-24T06:58:27.002Z,85.86
2019-04-24T07:03:33.932Z,85.62
2019-04-24T07:08:26.573Z,85.71
2019-04-24T07:10:49.336Z,85.52
2019-04-24T07:12:29.721Z,85.33
2019-04-24T07:13:37.739Z,85.62
2019-04-24T07:14:44.922Z,85.62
2019-04-24T07:15:44.859Z,85.62
2019-04-24T07:16:53.448Z,85.71
2019-04-24T07:18:26.276Z,85.52
2019-04-24T07:19:39.391Z,85.42
2019-04-24T07:20:44.219Z,85.81
2019-04-24T07:21:32.192Z,85.62
2019-04-24T07:22:24.151Z,84.75
2019-04-24T07:23:29.336Z,84.85
2019-04-24T07:25:47.898Z,85.52
2019-04-24T07:26:20.507Z,85.24
2019-04-24T07:27:38.344Z,84.80
2019-04-24T07:28:35.095Z,84.51
2019-04-24T07:29:39.587Z,84.31
2019-04-24T07:30:42.403Z,84.31
2019-04-24T07:31:42.788Z,84.12
2019-04-24T07:32:33.360Z,83.45
2019-04-24T07:33:39.339Z,83.64
2019-04-24T07:34:32.010Z,83.54
2019-04-24T07:35:59.927Z,83.74
2019-04-24T07:36:36.866Z,83.93
2019-04-24T07:37:42.742Z,83.54
2019-04-24T07:39:40.130Z,82.24
2019-04-24T07:40:32.270Z,82.34
2019-04-24T07:42:18.017Z,81.76
2019-04-24T07:45:33.986Z,81.28
2019-04-24T07:48:27.651Z,80.71
2019-04-24T07:49:39.324Z,80.55
2019-04-24T07:50:44.438Z,80.75
2019-04-24T07:51:38.701Z,81.04
2019-04-24T07:53:28.970Z,80.17
2019-04-24T07:55:37.337Z,80.17
2019-04-24T07:56:55.445Z,79.92
2019-04-24T07:57:20.574Z,78.67
2019-04-24T07:58:45.582Z,78.00
2019-04-24T07:59:54.735Z,77.33
2019-04-24T08:00:27.957Z,76.75
2019-04-24T08:01:33.393Z,75.05
2019-04-24T08:03:30.931Z,74.38
2019-04-24T08:04:43.958Z,74.09
2019-04-24T08:05:25.012Z,73.42
2019-04-24T08:06:48.084Z,72.74
2019-04-24T08:07:33.027Z,72.68
2019-04-24T08:08:47.956Z,72.17
2019-04-24T08:09:51.139Z,71.81
2019-04-24T08:11:36.166Z,71.30
2019-04-24T08:14:56.094Z,71.49
2019-04-24T08:16:24.654Z,71.53
2019-04-24T08:17:39.054Z,71.34
2019-04-24T08:18:25.301Z,71.14
2019-04-24T08:21:24.384Z,70.60
2019-04-24T08:22:29.599Z,70.06
2019-04-24T08:24:41.105Z,68.13
2019-04-24T08:25:31.496Z,67.84
2019-04-24T08:26:31.794Z,66.78
2019-04-24T08:28:40.643Z,67.84
2019-04-24T08:29:39.278Z,67.13
2019-04-24T08:30:35.844Z,67.71
2019-04-24T08:31:44.084Z,68.00
2019-04-24T08:33:39.486Z,67.90
2019-04-24T08:34:39.135Z,68.19
2019-04-24T08:35:47.214Z,67.52
2019-04-24T08:37:38.868Z,67.26
2019-04-24T08:39:39.216Z,66.01
2019-04-24T08:40:33.199Z,65.56
2019-04-24T08:41:42.634Z,64.98
2019-04-24T08:43:27.513Z,64.21
2019-04-24T08:44:38.033Z,63.44
2019-04-24T08:45:37.644Z,63.54
2019-04-24T08:46:34.256Z,62.96
2019-04-24T08:47:43.928Z,62.86
2019-04-24T08:48:47.194Z,62.76
2019-04-24T08:49:48.273Z,63.73
2019-04-24T08:50:57.262Z,63.98
2019-04-24T08:52:48.456Z,64.76
2019-04-24T08:53:43.322Z,64.56
2019-04-24T08:54:30.909Z,64.86
2019-04-24T08:55:38.075Z,64.76
2019-04-24T08:57:39.846Z,64.69
2019-04-24T08:58:43.166Z,65.14
2019-04-24T08:59:50.825Z,64.28
2019-04-24T09:00:39.178Z,64.66
2019-04-24T09:01:46.619Z,64.76
2019-04-24T09:02:37.689Z,66.59
2019-04-24T09:03:48.001Z,65.72
2019-04-24T09:04:48.371Z,65.81
2019-04-24T09:05:42.331Z,66.88
2019-04-24T09:06:38.837Z,66.88
2019-04-24T09:07:37.019Z,65.81
2019-04-24T09:08:40.684Z,65.17
2019-04-24T09:09:30.609Z,64.79
2019-04-24T09:11:44.476Z,63.73
2019-04-24T09:12:43.503Z,64.40
2019-04-24T09:13:36.194Z,64.59
2019-04-24T09:14:28.941Z,64.50
2019-04-24T09:16:40.818Z,64.40
2019-04-24T09:17:23.032Z,64.40
2019-04-24T09:18:34.105Z,65.85
2019-04-24T09:19:22.214Z,64.89
2019-04-24T09:20:50.853Z,64.59
2019-04-24T09:21:30.751Z,64.11
2019-04-24T09:22:29.826Z,63.92
2019-04-24T09:27:39.789Z,63.34
2019-04-24T09:28:48.234Z,63.18
2019-04-24T09:29:49.600Z,63.09
2019-04-24T09:31:36.226Z,62.60
2019-04-24T09:33:32.102Z,62.15
2019-04-24T09:34:28.300Z,61.96
2019-04-24T09:36:13.383Z,62.15
2019-04-24T09:36:42.253Z,62.02
2019-04-24T09:37:42.041Z,62.02
2019-04-24T09:38:37.635Z,62.51
2019-04-24T09:39:30.951Z,62.31
2019-04-24T09:43:41.213Z,62.25
2019-04-24T09:44:35.269Z,61.77
2019-04-24T09:45:36.566Z,63.02
2019-04-24T09:46:34.960Z,62.63
2019-04-24T09:48:47.119Z,61.77
2019-04-24T09:49:22.786Z,61.96
2019-04-24T09:50:38.849Z,61.99
2019-04-24T09:51:52.028Z,61.22
2019-04-24T09:52:36.373Z,60.51
2019-04-24T09:53:45.354Z,60.80
2019-04-24T09:55:35.929Z,61.38
2019-04-24T09:56:37.928Z,61.38
2019-04-24T09:57:36.879Z,61.86
2019-04-24T09:58:49.546Z,61.96
2019-04-24T09:59:28.822Z,61.86
2019-04-24T10:00:53.742Z,62.05
2019-04-24T10:02:30.947Z,61.38
2019-04-24T10:03:33.769Z,61.77
2019-04-24T10:05:39.432Z,61.31
2019-04-24T10:06:40.771Z,60.64
2019-04-24T10:09:35.350Z,59.41
2019-04-24T10:10:29.415Z,59.60
2019-04-24T10:13:28.282Z,59.12
2019-04-24T10:14:44.907Z,58.25
2019-04-24T10:15:39.203Z,58.57
2019-04-24T10:16:35.761Z,58.37
2019-04-24T10:17:25.616Z,58.15
2019-04-24T10:18:44.632Z,57.67
2019-04-24T10:19:47.028Z,58.25
2019-04-24T10:20:23.878Z,57.96
2019-04-24T10:21:31.147Z,58.15
2019-04-24T10:22:39.587Z,57.12
2019-04-24T10:23:34.872Z,56.35
2019-04-24T10:24:35.975Z,55.57
2019-04-24T10:26:27.727Z,55.77
2019-04-24T10:27:36.606Z,57.44
2019-04-24T10:28:42.596Z,55.11
2019-04-24T10:30:37.418Z,55.31
2019-04-24T10:31:39.300Z,55.02
2019-04-24T10:34:23.287Z,55.31
2019-04-24T10:35:40.038Z,55.31
2019-04-24T10:36:34.412Z,55.29
2019-04-24T10:37:45.877Z,55.38
2019-04-24T10:38:36.809Z,55.19
2019-04-24T10:39:55.068Z,55.38
2019-04-24T10:40:30.378Z,55.29
2019-04-24T10:41:37.794Z,56.54
2019-04-24T10:42:24.877Z,56.15
2019-04-24T10:43:30.783Z,55.60
2019-04-24T10:44:32.974Z,55.79
2019-04-24T10:45:28.205Z,55.89
2019-04-24T10:46:42.091Z,55.70
2019-04-24T10:48:21.022Z,55.79
2019-04-24T10:49:38.679Z,55.67
2019-04-24T10:50:33.521Z,55.77
2019-04-24T10:51:50.921Z,55.96
2019-04-24T10:52:27.453Z,55.77
2019-04-24T10:53:28.769Z,57.03
2019-04-24T10:54:38.277Z,56.45
2019-04-24T10:56:41.542Z,55.19
2019-04-24T10:57:41.945Z,54.99
2019-04-24T10:59:39.993Z,55.38
2019-04-24T11:02:05.722Z,54.25
2019-04-24T11:02:36.762Z,54.25
2019-04-24T11:03:50.672Z,54.44
2019-04-24T11:04:47.736Z,54.35
2019-04-24T11:06:47.082Z,53.77
2019-04-24T11:07:48.264Z,53.96
2019-04-24T11:08:46.146Z,53.96
2019-04-24T11:09:49.318Z,54.05
2019-04-24T11:11:41.450Z,54.15
2019-04-24T11:13:00.693Z,54.03
2019-04-24T11:13:45.605Z,54.32
2019-04-24T11:14:52.202Z,54.32
2019-04-24T11:15:42.331Z,54.32
2019-04-24T11:16:56.774Z,54.25
2019-04-24T11:18:45.979Z,53.86
2019-04-24T11:21:04.084Z,53.96
2019-04-24T11:22:34.444Z,54.35
2019-04-24T11:23:37.517Z,53.86
2019-04-24T11:26:36.893Z,51.86
2019-04-24T11:27:36.496Z,51.18
2019-04-24T11:28:36.784Z,51.37
2019-04-24T11:29:50.440Z,50.89
2019-04-24T11:30:38.662Z,50.40
2019-04-24T11:31:35.330Z,50.70
2019-04-24T11:32:43.436Z,50.89
2019-04-24T11:35:02.832Z,51.20
2019-04-24T11:35:41.633Z,51.28
2019-04-24T11:36:42.423Z,51.08
2019-04-24T11:37:31.464Z,51.18
2019-04-24T11:38:41.126Z,51.47
2019-04-24T11:39:59.771Z,51.44
2019-04-24T11:42:39.336Z,52.02
2019-04-24T11:43:44.097Z,51.76
2019-04-24T11:44:40.534Z,52.24
2019-04-24T11:45:36.675Z,52.05
2019-04-24T11:47:53.307Z,52.44
2019-04-24T11:48:43.788Z,52.34
2019-04-24T11:49:37.085Z,52.46
2019-04-24T11:51:06.723Z,52.56
2019-04-24T11:52:54.066Z,52.92
2019-04-24T11:53:25.942Z,52.75
2019-04-24T11:54:52.382Z,52.75
2019-04-24T11:56:37.666Z,51.98
2019-04-24T11:58:36.086Z,52.53
2019-04-24T11:59:11.960Z,52.53
2019-04-24T12:00:19.442Z,53.02
2019-04-24T12:01:34.082Z,53.11
2019-04-24T12:02:28.351Z,53.41
2019-04-24T12:03:32.852Z,53.21
2019-04-24T12:04:33.538Z,53.02
2019-04-24T12:05:42.272Z,53.21
2019-04-24T12:06:34.132Z,52.92
2019-04-24T12:07:38.095Z,52.36
2019-04-24T12:08:39.866Z,51.30
2019-04-24T12:09:36.522Z,51.40
2019-04-24T12:12:33.091Z,51.59
2019-04-24T12:14:33.192Z,50.94
2019-04-24T12:16:31.483Z,50.55
2019-04-24T12:17:33.780Z,50.84
2019-04-24T12:18:43.441Z,50.35
2019-04-24T12:19:39.526Z,50.35
2019-04-24T12:20:40.893Z,50.55
2019-04-24T12:21:36.051Z,50.43
2019-04-24T12:22:31.195Z,50.55
2019-04-24T12:23:37.870Z,51.30
2019-04-24T12:24:29.191Z,51.01
2019-04-24T12:27:36.562Z,49.58
2019-04-24T12:28:35.929Z,49.68
2019-04-24T12:29:29.936Z,49.77
2019-04-24T12:30:30.614Z,49.77
2019-04-24T12:31:26.570Z,49.49
2019-04-24T12:32:32.680Z,49.39
2019-04-24T12:33:43.376Z,49.77
2019-04-24T12:34:39.151Z,49.39
2019-04-24T12:36:33.115Z,50.24
2019-04-24T12:37:28.936Z,49.95
2019-04-24T12:38:41.564Z,49.75
2019-04-24T12:39:32.184Z,50.16
2019-04-24T12:40:35.435Z,49.95
2019-04-24T12:42:41.881Z,50.35
2019-04-24T12:43:36.736Z,50.16
2019-04-24T12:44:41.424Z,49.58
2019-04-24T12:45:44.886Z,49.68
2019-04-24T12:46:32.399Z,50.45
2019-04-24T12:48:39.830Z,50.45
2019-04-24T12:49:45.695Z,50.35
2019-04-24T12:50:41.898Z,50.45
2019-04-24T12:52:27.618Z,50.07
2019-04-24T12:53:37.223Z,50.45
2019-04-24T12:54:31.930Z,50.26
2019-04-24T12:55:53.878Z,50.84
2019-04-24T12:56:44.029Z,52.00
2019-04-24T12:57:38.838Z,50.55
2019-04-24T12:59:36.826Z,50.45
2019-04-24T13:00:40.423Z,49.68
2019-04-24T13:01:35.651Z,48.90
2019-04-24T13:03:39.574Z,49.29
2019-04-24T13:04:47.848Z,49.39
2019-04-24T13:06:18.126Z,49.37
2019-04-24T13:07:43.791Z,48.42
2019-04-24T13:08:50.804Z,48.13
2019-04-24T13:10:43.191Z,48.90
2019-04-24T13:11:38.156Z,48.42
2019-04-24T13:13:49.507Z,47.84
2019-04-24T13:14:47.816Z,48.32
2019-04-24T13:16:48.315Z,47.57
2019-04-24T13:17:42.392Z,48.03
2019-04-24T13:18:43.133Z,48.15
2019-04-24T13:20:12.587Z,47.57
2019-04-24T13:21:11.570Z,47.36
2019-04-24T13:22:12.632Z,47.47
2019-04-24T13:23:18.037Z,47.28
2019-04-24T13:24:23.659Z,47.45
2019-04-24T13:25:32.224Z,47.26
2019-04-24T13:26:42.953Z,47.38
2019-04-24T13:28:00.768Z,47.77
2019-04-24T13:28:52.310Z,47.57
2019-04-24T13:29:43.981Z,46.89
2019-04-24T13:30:59.507Z,46.80
2019-04-24T13:31:41.785Z,46.70
2019-04-24T13:32:37.199Z,47.38
2019-04-24T13:33:38.701Z,47.77
2019-04-24T13:34:53.879Z,47.47
2019-04-24T13:35:33.383Z,47.77
2019-04-24T13:36:41.893Z,48.06
2019-04-24T13:37:52.358Z,47.67
2019-04-24T13:40:46.613Z,48.06
2019-04-24T13:41:49.842Z,47.38
2019-04-24T13:42:38.512Z,47.38
2019-04-24T13:44:00.231Z,47.67
2019-04-24T13:44:39.006Z,48.06
2019-04-24T13:45:45.805Z,48.06
2019-04-24T13:46:36.278Z,47.28
2019-04-24T13:47:39.103Z,47.47
2019-04-24T13:48:43.634Z,46.33
2019-04-24T13:49:39.406Z,46.22
2019-04-24T13:51:42.247Z,46.22
2019-04-24T13:54:39.960Z,46.12
2019-04-24T13:55:43.774Z,45.92
2019-04-24T13:56:39.041Z,45.75
2019-04-24T13:57:38.933Z,45.54
2019-04-24T13:58:37.331Z,45.95
2019-04-24T13:59:46.443Z,45.95
2019-04-24T14:00:47.317Z,45.75
2019-04-24T14:01:45.684Z,45.85
2019-04-24T14:03:07.695Z,45.56
2019-04-24T14:03:50.269Z,46.14
2019-04-24T14:04:26.781Z,45.95
2019-04-24T14:05:48.993Z,45.75
2019-04-24T14:06:48.796Z,46.04
2019-04-24T14:08:51.744Z,47.20
2019-04-24T14:13:44.531Z,46.92
2019-04-24T14:14:44.922Z,47.30
2019-04-24T14:15:48.484Z,47.20
2019-04-24T14:16:38.521Z,47.62
2019-04-24T14:19:03.773Z,45.75
2019-04-24T14:20:37.506Z,46.04
2019-04-24T14:22:50.632Z,45.85
2019-04-24T14:23:39.848Z,46.24
2019-04-24T14:24:42.267Z,46.04
2019-04-24T14:25:40.292Z,45.95
2019-04-24T14:26:45.651Z,46.43
2019-04-24T14:27:35.822Z,46.33
2019-04-24T14:30:48.664Z,46.72
2019-04-24T14:31:32.804Z,46.62
2019-04-24T14:32:44.621Z,46.62
2019-04-24T14:33:48.861Z,46.43
2019-04-24T14:34:46.479Z,46.33
2019-04-24T14:35:47.161Z,45.95
2019-04-24T14:36:44.344Z,46.26
2019-04-24T14:37:45.323Z,45.58
2019-04-24T14:38:48.136Z,45.48
2019-04-24T14:39:42.133Z,44.51
2019-04-24T14:40:39.419Z,44.42
2019-04-24T14:41:38.288Z,44.49
2019-04-24T14:44:01.869Z,45.37
2019-04-24T14:44:59.427Z,45.17
2019-04-24T14:45:45.362Z,45.27
2019-04-24T14:48:43.556Z,45.37
2019-04-24T14:50:36.251Z,45.27
2019-04-24T14:51:40.470Z,44.59
2019-04-24T14:53:46.233Z,44.49
2019-04-24T14:54:40.870Z,44.10
2019-04-24T14:55:52.407Z,44.20
2019-04-24T14:56:37.705Z,44.23
2019-04-24T14:57:38.846Z,44.13
2019-04-24T14:58:52.572Z,44.03
2019-04-24T14:59:43.622Z,44.03
2019-04-24T15:00:42.007Z,44.13
2019-04-24T15:01:47.731Z,43.64
2019-04-24T15:03:38.095Z,43.95
2019-04-24T15:04:39.417Z,43.86
2019-04-24T15:05:50.849Z,43.18
2019-04-24T15:06:40.539Z,43.95
2019-04-24T15:07:53.220Z,42.79
2019-04-24T15:08:48.894Z,42.99
2019-04-24T15:09:32.438Z,43.06
2019-04-24T15:10:39.520Z,43.64
2019-04-24T15:11:58.199Z,43.84
2019-04-24T15:12:43.066Z,43.93
2019-04-24T15:14:41.026Z,43.76
2019-04-24T15:15:33.867Z,43.57
2019-04-24T15:16:44.175Z,44.24
2019-04-24T15:17:43.882Z,44.15
2019-04-24T15:18:46.880Z,43.95
2019-04-24T15:20:33.193Z,43.66
2019-04-24T15:21:45.125Z,43.86
2019-04-24T15:22:46.928Z,43.35
2019-04-24T15:24:05.495Z,43.84
2019-04-24T15:26:46.696Z,43.27
2019-04-24T15:28:07.528Z,42.77
2019-04-24T15:28:46.572Z,43.08
2019-04-24T15:30:41.647Z,42.96
2019-04-24T15:31:39.319Z,43.93
2019-04-24T15:32:43.987Z,43.74
2019-04-24T15:33:46.211Z,43.64
2019-04-24T15:34:44.977Z,43.54
2019-04-24T15:36:32.908Z,43.06
2019-04-24T15:37:43.794Z,42.96
2019-04-24T15:38:39.657Z,43.35
2019-04-24T15:39:49.490Z,43.84
2019-04-24T15:41:03.060Z,43.64
2019-04-24T15:41:50.705Z,43.74
2019-04-24T15:42:42.528Z,43.26
2019-04-24T15:43:32.685Z,43.06
2019-04-24T15:44:40.078Z,43.06
2019-04-24T15:45:49.181Z,42.96
2019-04-24T15:46:50.406Z,43.74
2019-04-24T15:48:01.509Z,43.93
2019-04-24T15:49:44.213Z,45.00
2019-04-24T15:50:47.342Z,45.20
2019-04-24T15:51:32.085Z,45.20
2019-04-24T15:52:09.614Z,45.58
2019-04-24T15:53:09.647Z,45.20
2019-04-24T15:54:09.671Z,45.29
2019-04-24T15:55:10.229Z,44.90
2019-04-24T15:56:09.728Z,45.29
2019-04-24T15:57:09.748Z,44.51
2019-04-24T15:58:19.494Z,43.45
2019-04-24T15:59:29.182Z,43.54
2019-04-24T16:00:38.133Z,43.84
2019-04-24T16:02:51.812Z,42.96
2019-04-24T16:03:48.582Z,43.84
2019-04-24T16:04:46.711Z,43.64
2019-04-24T16:05:10.010Z,43.93
2019-04-24T16:06:09.992Z,43.84
2019-04-24T16:07:10.016Z,43.84
2019-04-24T16:08:10.044Z,44.03
2019-04-24T16:09:10.431Z,44.51
2019-04-24T16:10:10.103Z,44.51
2019-04-24T16:11:10.122Z,44.61
2019-04-24T16:12:10.161Z,44.71
2019-04-24T16:13:14.554Z,45.20
2019-04-24T16:14:29.230Z,45.00
2019-04-24T16:15:41.963Z,45.07
2019-04-24T16:16:39.853Z,45.10
2019-04-24T16:17:44.798Z,45.39
2019-04-24T16:19:01.467Z,45.39
2019-04-24T16:19:40.944Z,45.48
2019-04-24T16:20:37.066Z,45.78
2019-04-24T16:21:37.034Z,45.39
2019-04-24T16:22:40.639Z,45.58
2019-04-24T16:24:45.280Z,44.85
2019-04-24T16:25:36.546Z,44.19
2019-04-24T16:27:58.538Z,42.95
2019-04-24T16:28:42.526Z,42.78
2019-04-24T16:29:58.708Z,42.56
2019-04-24T16:30:41.390Z,43.05
2019-04-24T16:32:05.781Z,43.61
2019-04-24T16:33:35.891Z,43.90
2019-04-24T16:34:45.400Z,44.19
2019-04-24T16:35:41.254Z,43.92
2019-04-24T16:38:07.227Z,43.73
2019-04-24T16:43:46.723Z,43.54
2019-04-24T16:44:50.368Z,43.92
2019-04-24T16:46:11.988Z,44.12
2019-04-24T16:48:08.818Z,44.12
2019-04-24T16:48:50.086Z,44.31
2019-04-24T16:50:01.259Z,44.60
2019-04-24T16:50:45.756Z,44.51
2019-04-24T16:51:49.979Z,45.36
2019-04-24T16:52:59.403Z,45.53
2019-04-24T16:54:36.469Z,46.41
2019-04-24T16:55:39.054Z,46.14
2019-04-24T16:56:45.671Z,45.55
2019-04-24T16:58:41.714Z,46.01
2019-04-24T16:59:36.126Z,46.11
2019-04-24T17:00:57.726Z,46.21
2019-04-24T17:02:45.276Z,46.60
2019-04-24T17:05:04.800Z,48.30
2019-04-24T17:06:02.389Z,48.20
2019-04-24T17:06:47.171Z,48.18
2019-04-24T17:07:53.795Z,48.85
2019-04-24T17:08:49.363Z,49.02
2019-04-24T17:10:48.842Z,49.51
2019-04-24T17:12:36.375Z,49.32
2019-04-24T17:13:43.866Z,49.51
2019-04-24T17:15:43.770Z,50.57
2019-04-24T17:17:41.593Z,50.48
2019-04-24T17:18:58.890Z,50.16
2019-04-24T17:20:52.044Z,50.65
2019-04-24T17:21:52.208Z,50.94
2019-04-24T17:23:48.820Z,51.23
2019-04-24T17:24:46.760Z,51.23
2019-04-24T17:25:47.185Z,52.10
2019-04-24T17:26:55.283Z,51.52
2019-04-24T17:27:40.776Z,51.72
2019-04-24T17:31:40.370Z,52.56
2019-04-24T17:33:48.816Z,52.27
2019-04-24T17:35:03.114Z,52.36
2019-04-24T17:35:42.582Z,52.36
2019-04-24T17:36:25.184Z,52.27
2019-04-24T17:37:12.410Z,53.14
2019-04-24T17:38:12.442Z,52.95
2019-04-24T17:39:12.461Z,53.04
2019-04-24T17:40:12.685Z,53.04
2019-04-24T17:41:18.760Z,52.85
2019-04-24T17:42:28.562Z,52.85
2019-04-24T17:43:48.526Z,52.85
2019-04-24T17:44:50.245Z,53.14
2019-04-24T17:45:50.225Z,52.75
2019-04-24T17:46:44.642Z,52.73
2019-04-24T17:48:39.858Z,53.31
2019-04-24T17:49:56.782Z,53.31
2019-04-24T17:50:39.169Z,54.08
2019-04-24T17:52:50.851Z,53.89
2019-04-24T17:53:51.590Z,53.69
2019-04-24T17:54:36.836Z,53.79
2019-04-24T17:55:42.767Z,54.17
2019-04-24T17:56:48.901Z,54.17
2019-04-24T17:58:52.435Z,54.37
2019-04-24T17:59:52.515Z,54.35
2019-04-24T18:00:52.511Z,54.73
2019-04-24T18:01:52.516Z,55.02
2019-04-24T18:02:52.539Z,54.93
2019-04-24T18:03:53.648Z,54.93
2019-04-24T18:04:52.595Z,54.53
2019-04-24T18:05:52.612Z,54.63
2019-04-24T18:06:52.638Z,54.25
2019-04-24T18:07:52.668Z,54.35
2019-04-24T18:08:52.689Z,54.44
2019-04-24T18:09:52.712Z,54.44
2019-04-24T18:10:52.737Z,54.25
2019-04-24T18:11:52.768Z,54.44
2019-04-24T18:12:52.795Z,54.35
2019-04-24T18:13:52.816Z,54.35
2019-04-24T18:14:52.846Z,54.35
2019-04-24T18:15:52.863Z,54.93
2019-04-24T18:16:52.888Z,55.02